sensor_id;sensor_type;location;lat;lon;timestamp;pressure;altitude;pressure_sealevel;temperature
68743;BMP180;55725;42.758;26.702;2023-04-03T00:00:57;98585.00;;;7.50
68743;BMP180;55725;42.758;26.702;2023-04-03T00:02:37;98600.00;;;8.10
68743;BMP180;55725;42.758;26.702;2023-04-03T00:04:18;98597.00;;;7.80
68743;BMP180;55725;42.758;26.702;2023-04-03T00:05:58;98583.00;;;7.60
68743;BMP180;55725;42.758;26.702;2023-04-03T00:07:38;98596.00;;;7.60
68743;BMP180;55725;42.758;26.702;2023-04-03T00:09:19;98596.00;;;8.20
68743;BMP180;55725;42.758;26.702;2023-04-03T00:10:59;98586.00;;;7.90
68743;BMP180;55725;42.758;26.702;2023-04-03T00:12:40;98583.00;;;7.90
68743;BMP180;55725;42.758;26.702;2023-04-03T00:14:20;98584.00;;;8.00
68743;BMP180;55725;42.758;26.702;2023-04-03T00:16:00;98585.00;;;7.80
68743;BMP180;55725;42.758;26.702;2023-04-03T00:17:41;98576.00;;;7.70
68743;BMP180;55725;42.758;26.702;2023-04-03T00:19:22;98582.00;;;8.20
68743;BMP180;55725;42.758;26.702;2023-04-03T00:21:02;98584.00;;;8.00
68743;BMP180;55725;42.758;26.702;2023-04-03T00:22:43;98579.00;;;8.00
68743;BMP180;55725;42.758;26.702;2023-04-03T00:24:23;98571.00;;;7.60
68743;BMP180;55725;42.758;26.702;2023-04-03T00:26:04;98577.00;;;7.30
68743;BMP180;55725;42.758;26.702;2023-04-03T00:27:44;98572.00;;;7.90
68743;BMP180;55725;42.758;26.702;2023-04-03T00:29:24;98558.00;;;8.10
68743;BMP180;55725;42.758;26.702;2023-04-03T00:31:05;98555.00;;;8.10
68743;BMP180;55725;42.758;26.702;2023-04-03T00:32:47;98552.00;;;7.80
68743;BMP180;55725;42.758;26.702;2023-04-03T00:34:27;98549.00;;;7.40
68743;BMP180;55725;42.758;26.702;2023-04-03T00:36:08;98541.00;;;7.30
68743;BMP180;55725;42.758;26.702;2023-04-03T00:37:52;98551.00;;;7.60
68743;BMP180;55725;42.758;26.702;2023-04-03T00:39:33;98551.00;;;7.10
68743;BMP180;55725;42.758;26.702;2023-04-03T00:41:13;98557.00;;;7.50
68743;BMP180;55725;42.758;26.702;2023-04-03T00:42:57;98549.00;;;7.30
68743;BMP180;55725;42.758;26.702;2023-04-03T00:46:18;98558.00;;;6.70
68743;BMP180;55725;42.758;26.702;2023-04-03T00:47:59;98556.00;;;6.50
68743;BMP180;55725;42.758;26.702;2023-04-03T00:49:40;98561.00;;;6.50
68743;BMP180;55725;42.758;26.702;2023-04-03T00:51:22;98557.00;;;6.80
68743;BMP180;55725;42.758;26.702;2023-04-03T00:53:03;98569.00;;;7.00
68743;BMP180;55725;42.758;26.702;2023-04-03T00:54:45;98554.00;;;7.20
68743;BMP180;55725;42.758;26.702;2023-04-03T00:56:27;98560.00;;;6.40
68743;BMP180;55725;42.758;26.702;2023-04-03T00:58:09;98563.00;;;6.90
68743;BMP180;55725;42.758;26.702;2023-04-03T00:59:51;98575.00;;;7.20
68743;BMP180;55725;42.758;26.702;2023-04-03T01:01:33;98573.00;;;6.70
68743;BMP180;55725;42.758;26.702;2023-04-03T01:03:14;98569.00;;;6.80
68743;BMP180;55725;42.758;26.702;2023-04-03T01:04:55;98572.00;;;6.70
68743;BMP180;55725;42.758;26.702;2023-04-03T01:06:37;98568.00;;;6.70
68743;BMP180;55725;42.758;26.702;2023-04-03T01:08:17;98581.00;;;6.60
68743;BMP180;55725;42.758;26.702;2023-04-03T01:09:59;98584.00;;;6.70
68743;BMP180;55725;42.758;26.702;2023-04-03T01:11:40;98584.00;;;7.00
68743;BMP180;55725;42.758;26.702;2023-04-03T01:13:22;98582.00;;;6.80
68743;BMP180;55725;42.758;26.702;2023-04-03T01:15:04;98583.00;;;6.90
68743;BMP180;55725;42.758;26.702;2023-04-03T01:16:54;98592.00;;;7.10
68743;BMP180;55725;42.758;26.702;2023-04-03T01:18:36;98575.00;;;6.20
68743;BMP180;55725;42.758;26.702;2023-04-03T01:22:19;98574.00;;;6.30
68743;BMP180;55725;42.758;26.702;2023-04-03T01:24:12;98582.00;;;6.90
68743;BMP180;55725;42.758;26.702;2023-04-03T01:25:55;98577.00;;;7.70
68743;BMP180;55725;42.758;26.702;2023-04-03T01:27:36;98580.00;;;7.80
68743;BMP180;55725;42.758;26.702;2023-04-03T01:29:17;98578.00;;;8.00
68743;BMP180;55725;42.758;26.702;2023-04-03T01:32:40;98595.00;;;6.90
68743;BMP180;55725;42.758;26.702;2023-04-03T01:34:21;98578.00;;;7.20
68743;BMP180;55725;42.758;26.702;2023-04-03T01:36:01;98581.00;;;5.20
68743;BMP180;55725;42.758;26.702;2023-04-03T01:37:41;98572.00;;;6.30
68743;BMP180;55725;42.758;26.702;2023-04-03T01:39:22;98585.00;;;6.50
68743;BMP180;55725;42.758;26.702;2023-04-03T01:41:02;98583.00;;;6.40
68743;BMP180;55725;42.758;26.702;2023-04-03T01:42:42;98581.00;;;6.20
68743;BMP180;55725;42.758;26.702;2023-04-03T01:44:23;98582.00;;;6.30
68743;BMP180;55725;42.758;26.702;2023-04-03T01:46:03;98592.00;;;6.30
68743;BMP180;55725;42.758;26.702;2023-04-03T01:47:43;98581.00;;;7.30
68743;BMP180;55725;42.758;26.702;2023-04-03T01:49:24;98590.00;;;6.90
68743;BMP180;55725;42.758;26.702;2023-04-03T01:51:04;98587.00;;;6.60
68743;BMP180;55725;42.758;26.702;2023-04-03T01:52:45;98582.00;;;6.00
68743;BMP180;55725;42.758;26.702;2023-04-03T01:54:25;98578.00;;;6.50
68743;BMP180;55725;42.758;26.702;2023-04-03T01:56:05;98583.00;;;6.60
68743;BMP180;55725;42.758;26.702;2023-04-03T01:57:46;98575.00;;;6.60
68743;BMP180;55725;42.758;26.702;2023-04-03T01:59:26;98577.00;;;6.10
68743;BMP180;55725;42.758;26.702;2023-04-03T02:01:06;98581.00;;;6.00
68743;BMP180;55725;42.758;26.702;2023-04-03T02:02:47;98569.00;;;6.10
68743;BMP180;55725;42.758;26.702;2023-04-03T02:04:27;98567.00;;;6.50
68743;BMP180;55725;42.758;26.702;2023-04-03T02:06:07;98567.00;;;6.30
68743;BMP180;55725;42.758;26.702;2023-04-03T02:07:48;98573.00;;;5.20
68743;BMP180;55725;42.758;26.702;2023-04-03T02:09:28;98576.00;;;6.30
68743;BMP180;55725;42.758;26.702;2023-04-03T02:11:08;98571.00;;;6.80
68743;BMP180;55725;42.758;26.702;2023-04-03T02:12:49;98564.00;;;7.00
68743;BMP180;55725;42.758;26.702;2023-04-03T02:14:29;98566.00;;;7.50
68743;BMP180;55725;42.758;26.702;2023-04-03T02:16:10;98554.00;;;6.80
68743;BMP180;55725;42.758;26.702;2023-04-03T02:17:51;98569.00;;;6.60
68743;BMP180;55725;42.758;26.702;2023-04-03T02:19:32;98573.00;;;6.50
68743;BMP180;55725;42.758;26.702;2023-04-03T02:21:12;98569.00;;;6.60
68743;BMP180;55725;42.758;26.702;2023-04-03T02:22:53;98568.00;;;6.20
68743;BMP180;55725;42.758;26.702;2023-04-03T02:24:33;98579.00;;;5.50
68743;BMP180;55725;42.758;26.702;2023-04-03T02:26:14;98573.00;;;5.90
68743;BMP180;55725;42.758;26.702;2023-04-03T02:27:55;98572.00;;;4.80
68743;BMP180;55725;42.758;26.702;2023-04-03T02:29:35;98579.00;;;5.00
68743;BMP180;55725;42.758;26.702;2023-04-03T02:31:15;98576.00;;;5.50
68743;BMP180;55725;42.758;26.702;2023-04-03T02:32:56;98571.00;;;5.70
68743;BMP180;55725;42.758;26.702;2023-04-03T02:34:36;98571.00;;;5.60
68743;BMP180;55725;42.758;26.702;2023-04-03T02:36:16;98573.00;;;6.10
68743;BMP180;55725;42.758;26.702;2023-04-03T02:37:57;98570.00;;;6.60
68743;BMP180;55725;42.758;26.702;2023-04-03T02:39:37;98572.00;;;6.40
68743;BMP180;55725;42.758;26.702;2023-04-03T02:41:17;98578.00;;;6.50
68743;BMP180;55725;42.758;26.702;2023-04-03T02:42:58;98578.00;;;6.50
68743;BMP180;55725;42.758;26.702;2023-04-03T02:44:38;98587.00;;;6.30
68743;BMP180;55725;42.758;26.702;2023-04-03T02:46:18;98582.00;;;6.30
68743;BMP180;55725;42.758;26.702;2023-04-03T02:47:59;98582.00;;;5.90
68743;BMP180;55725;42.758;26.702;2023-04-03T02:49:39;98584.00;;;6.20
68743;BMP180;55725;42.758;26.702;2023-04-03T02:51:19;98589.00;;;5.90
68743;BMP180;55725;42.758;26.702;2023-04-03T02:53:00;98588.00;;;5.90
68743;BMP180;55725;42.758;26.702;2023-04-03T02:54:40;98592.00;;;6.00
68743;BMP180;55725;42.758;26.702;2023-04-03T02:56:20;98592.00;;;5.30
68743;BMP180;55725;42.758;26.702;2023-04-03T02:58:01;98592.00;;;5.10
68743;BMP180;55725;42.758;26.702;2023-04-03T02:59:41;98597.00;;;5.60
68743;BMP180;55725;42.758;26.702;2023-04-03T03:01:22;98583.00;;;5.90
68743;BMP180;55725;42.758;26.702;2023-04-03T03:03:02;98593.00;;;5.70
68743;BMP180;55725;42.758;26.702;2023-04-03T03:04:42;98575.00;;;5.20
68743;BMP180;55725;42.758;26.702;2023-04-03T03:06:23;98569.00;;;5.50
68743;BMP180;55725;42.758;26.702;2023-04-03T03:08:03;98586.00;;;5.40
68743;BMP180;55725;42.758;26.702;2023-04-03T03:09:43;98576.00;;;5.80
68743;BMP180;55725;42.758;26.702;2023-04-03T03:11:24;98577.00;;;5.90
68743;BMP180;55725;42.758;26.702;2023-04-03T03:13:05;98572.00;;;5.90
68743;BMP180;55725;42.758;26.702;2023-04-03T03:14:45;98575.00;;;6.10
68743;BMP180;55725;42.758;26.702;2023-04-03T03:16:25;98579.00;;;6.70
68743;BMP180;55725;42.758;26.702;2023-04-03T03:18:06;98578.00;;;5.70
68743;BMP180;55725;42.758;26.702;2023-04-03T03:19:46;98582.00;;;5.40
68743;BMP180;55725;42.758;26.702;2023-04-03T03:21:26;98583.00;;;5.30
68743;BMP180;55725;42.758;26.702;2023-04-03T03:23:07;98579.00;;;5.30
68743;BMP180;55725;42.758;26.702;2023-04-03T03:24:47;98576.00;;;5.30
68743;BMP180;55725;42.758;26.702;2023-04-03T03:26:28;98576.00;;;5.80
68743;BMP180;55725;42.758;26.702;2023-04-03T03:28:09;98579.00;;;5.40
68743;BMP180;55725;42.758;26.702;2023-04-03T03:29:49;98579.00;;;5.60
68743;BMP180;55725;42.758;26.702;2023-04-03T03:31:30;98576.00;;;5.80
68743;BMP180;55725;42.758;26.702;2023-04-03T03:33:10;98576.00;;;6.60
68743;BMP180;55725;42.758;26.702;2023-04-03T03:34:50;98576.00;;;6.00
68743;BMP180;55725;42.758;26.702;2023-04-03T03:36:31;98589.00;;;6.00
68743;BMP180;55725;42.758;26.702;2023-04-03T03:38:12;98591.00;;;6.20
68743;BMP180;55725;42.758;26.702;2023-04-03T03:39:52;98590.00;;;6.00
68743;BMP180;55725;42.758;26.702;2023-04-03T03:41:32;98591.00;;;5.80
68743;BMP180;55725;42.758;26.702;2023-04-03T03:43:13;98584.00;;;5.60
68743;BMP180;55725;42.758;26.702;2023-04-03T03:44:53;98596.00;;;6.00
68743;BMP180;55725;42.758;26.702;2023-04-03T03:46:33;98595.00;;;6.30
68743;BMP180;55725;42.758;26.702;2023-04-03T03:48:14;98588.00;;;5.60
68743;BMP180;55725;42.758;26.702;2023-04-03T03:49:54;98595.00;;;7.80
68743;BMP180;55725;42.758;26.702;2023-04-03T03:51:34;98598.00;;;6.70
68743;BMP180;55725;42.758;26.702;2023-04-03T03:53:15;98598.00;;;6.40
68743;BMP180;55725;42.758;26.702;2023-04-03T03:54:56;98588.00;;;6.20
68743;BMP180;55725;42.758;26.702;2023-04-03T03:56:36;98591.00;;;5.90
68743;BMP180;55725;42.758;26.702;2023-04-03T03:58:16;98586.00;;;6.10
68743;BMP180;55725;42.758;26.702;2023-04-03T03:59:57;98582.00;;;6.00
68743;BMP180;55725;42.758;26.702;2023-04-03T04:01:37;98592.00;;;6.30
68743;BMP180;55725;42.758;26.702;2023-04-03T04:03:17;98586.00;;;6.00
68743;BMP180;55725;42.758;26.702;2023-04-03T04:04:57;98590.00;;;5.90
68743;BMP180;55725;42.758;26.702;2023-04-03T04:06:38;98591.00;;;6.40
68743;BMP180;55725;42.758;26.702;2023-04-03T04:08:18;98589.00;;;6.20
68743;BMP180;55725;42.758;26.702;2023-04-03T04:09:58;98589.00;;;6.00
68743;BMP180;55725;42.758;26.702;2023-04-03T04:11:39;98590.00;;;5.70
68743;BMP180;55725;42.758;26.702;2023-04-03T04:13:20;98589.00;;;6.00
68743;BMP180;55725;42.758;26.702;2023-04-03T04:15:01;98587.00;;;5.70
68743;BMP180;55725;42.758;26.702;2023-04-03T04:16:41;98594.00;;;5.70
68743;BMP180;55725;42.758;26.702;2023-04-03T04:18:22;98584.00;;;5.80
68743;BMP180;55725;42.758;26.702;2023-04-03T04:20:03;98585.00;;;6.00
68743;BMP180;55725;42.758;26.702;2023-04-03T04:21:45;98585.00;;;6.10
68743;BMP180;55725;42.758;26.702;2023-04-03T04:23:25;98583.00;;;6.00
68743;BMP180;55725;42.758;26.702;2023-04-03T04:25:06;98568.00;;;5.50
68743;BMP180;55725;42.758;26.702;2023-04-03T04:26:46;98567.00;;;5.60
68743;BMP180;55725;42.758;26.702;2023-04-03T04:28:26;98567.00;;;6.00
68743;BMP180;55725;42.758;26.702;2023-04-03T04:30:07;98566.00;;;6.30
68743;BMP180;55725;42.758;26.702;2023-04-03T04:31:47;98561.00;;;6.20
68743;BMP180;55725;42.758;26.702;2023-04-03T04:33:28;98563.00;;;6.60
68743;BMP180;55725;42.758;26.702;2023-04-03T04:35:08;98548.00;;;6.90
68743;BMP180;55725;42.758;26.702;2023-04-03T04:36:48;98551.00;;;6.80
68743;BMP180;55725;42.758;26.702;2023-04-03T04:38:29;98560.00;;;6.80
68743;BMP180;55725;42.758;26.702;2023-04-03T04:40:10;98553.00;;;7.00
68743;BMP180;55725;42.758;26.702;2023-04-03T04:41:50;98565.00;;;6.90
68743;BMP180;55725;42.758;26.702;2023-04-03T04:43:30;98561.00;;;6.70
68743;BMP180;55725;42.758;26.702;2023-04-03T04:45:11;98557.00;;;6.70
68743;BMP180;55725;42.758;26.702;2023-04-03T04:46:51;98568.00;;;6.40
68743;BMP180;55725;42.758;26.702;2023-04-03T04:48:31;98570.00;;;6.80
68743;BMP180;55725;42.758;26.702;2023-04-03T04:50:12;98567.00;;;6.50
68743;BMP180;55725;42.758;26.702;2023-04-03T04:51:52;98576.00;;;6.60
68743;BMP180;55725;42.758;26.702;2023-04-03T04:53:33;98573.00;;;6.50
68743;BMP180;55725;42.758;26.702;2023-04-03T04:55:13;98563.00;;;6.20
68743;BMP180;55725;42.758;26.702;2023-04-03T04:56:54;98570.00;;;6.60
68743;BMP180;55725;42.758;26.702;2023-04-03T04:58:35;98562.00;;;7.00
68743;BMP180;55725;42.758;26.702;2023-04-03T05:00:15;98560.00;;;7.30
68743;BMP180;55725;42.758;26.702;2023-04-03T05:01:55;98562.00;;;7.60
68743;BMP180;55725;42.758;26.702;2023-04-03T05:03:36;98562.00;;;7.80
68743;BMP180;55725;42.758;26.702;2023-04-03T05:05:16;98567.00;;;7.70
68743;BMP180;55725;42.758;26.702;2023-04-03T05:06:56;98567.00;;;7.70
68743;BMP180;55725;42.758;26.702;2023-04-03T05:08:37;98560.00;;;8.00
68743;BMP180;55725;42.758;26.702;2023-04-03T05:10:17;98554.00;;;8.40
68743;BMP180;55725;42.758;26.702;2023-04-03T05:11:57;98567.00;;;8.60
68743;BMP180;55725;42.758;26.702;2023-04-03T05:13:38;98575.00;;;8.60
68743;BMP180;55725;42.758;26.702;2023-04-03T05:15:18;98566.00;;;8.60
68743;BMP180;55725;42.758;26.702;2023-04-03T05:16:58;98566.00;;;9.00
68743;BMP180;55725;42.758;26.702;2023-04-03T05:18:39;98569.00;;;9.00
68743;BMP180;55725;42.758;26.702;2023-04-03T05:20:19;98577.00;;;8.90
68743;BMP180;55725;42.758;26.702;2023-04-03T05:22:00;98575.00;;;8.50
68743;BMP180;55725;42.758;26.702;2023-04-03T05:23:40;98578.00;;;8.60
68743;BMP180;55725;42.758;26.702;2023-04-03T05:25:21;98579.00;;;8.90
68743;BMP180;55725;42.758;26.702;2023-04-03T05:27:01;98584.00;;;8.90
68743;BMP180;55725;42.758;26.702;2023-04-03T05:28:41;98587.00;;;9.00
68743;BMP180;55725;42.758;26.702;2023-04-03T05:30:22;98595.00;;;9.30
68743;BMP180;55725;42.758;26.702;2023-04-03T05:32:02;98592.00;;;9.30
68743;BMP180;55725;42.758;26.702;2023-04-03T05:33:42;98602.00;;;9.60
68743;BMP180;55725;42.758;26.702;2023-04-03T05:35:22;98596.00;;;10.00
68743;BMP180;55725;42.758;26.702;2023-04-03T05:37:03;98602.00;;;10.00
68743;BMP180;55725;42.758;26.702;2023-04-03T05:38:45;98602.00;;;10.20
68743;BMP180;55725;42.758;26.702;2023-04-03T05:40:25;98607.00;;;10.30
68743;BMP180;55725;42.758;26.702;2023-04-03T05:42:06;98604.00;;;10.70
68743;BMP180;55725;42.758;26.702;2023-04-03T05:43:46;98619.00;;;11.10
68743;BMP180;55725;42.758;26.702;2023-04-03T05:45:27;98615.00;;;11.20
68743;BMP180;55725;42.758;26.702;2023-04-03T05:47:07;98622.00;;;11.20
68743;BMP180;55725;42.758;26.702;2023-04-03T05:48:47;98627.00;;;11.40
68743;BMP180;55725;42.758;26.702;2023-04-03T05:50:28;98634.00;;;11.50
68743;BMP180;55725;42.758;26.702;2023-04-03T05:52:19;98631.00;;;11.70
68743;BMP180;55725;42.758;26.702;2023-04-03T05:54:03;98632.00;;;12.10
68743;BMP180;55725;42.758;26.702;2023-04-03T05:55:46;98631.00;;;12.40
68743;BMP180;55725;42.758;26.702;2023-04-03T05:57:26;98629.00;;;12.70
68743;BMP180;55725;42.758;26.702;2023-04-03T05:59:06;98622.00;;;12.90
68743;BMP180;55725;42.758;26.702;2023-04-03T06:00:47;98622.00;;;13.00
68743;BMP180;55725;42.758;26.702;2023-04-03T06:02:28;98624.00;;;12.80
68743;BMP180;55725;42.758;26.702;2023-04-03T06:04:08;98622.00;;;13.20
68743;BMP180;55725;42.758;26.702;2023-04-03T06:05:49;98616.00;;;12.90
68743;BMP180;55725;42.758;26.702;2023-04-03T06:07:30;98612.00;;;12.60
68743;BMP180;55725;42.758;26.702;2023-04-03T06:09:10;98621.00;;;13.00
68743;BMP180;55725;42.758;26.702;2023-04-03T06:10:51;98619.00;;;12.80
68743;BMP180;55725;42.758;26.702;2023-04-03T06:12:31;98625.00;;;12.80
68743;BMP180;55725;42.758;26.702;2023-04-03T06:14:12;98622.00;;;12.60
68743;BMP180;55725;42.758;26.702;2023-04-03T06:15:52;98622.00;;;12.60
68743;BMP180;55725;42.758;26.702;2023-04-03T06:17:32;98630.00;;;12.60
68743;BMP180;55725;42.758;26.702;2023-04-03T06:19:13;98624.00;;;12.80
68743;BMP180;55725;42.758;26.702;2023-04-03T06:20:53;98625.00;;;12.70
68743;BMP180;55725;42.758;26.702;2023-04-03T06:22:33;98624.00;;;12.90
68743;BMP180;55725;42.758;26.702;2023-04-03T06:24:15;98635.00;;;12.70
68743;BMP180;55725;42.758;26.702;2023-04-03T06:25:55;98627.00;;;12.70
68743;BMP180;55725;42.758;26.702;2023-04-03T06:27:36;98629.00;;;12.80
68743;BMP180;55725;42.758;26.702;2023-04-03T06:29:16;98625.00;;;13.10
68743;BMP180;55725;42.758;26.702;2023-04-03T06:30:57;98638.00;;;13.00
68743;BMP180;55725;42.758;26.702;2023-04-03T06:32:37;98621.00;;;13.10
68743;BMP180;55725;42.758;26.702;2023-04-03T06:34:17;98636.00;;;13.30
68743;BMP180;55725;42.758;26.702;2023-04-03T06:35:58;98650.00;;;13.10
68743;BMP180;55725;42.758;26.702;2023-04-03T06:37:38;98645.00;;;13.10
68743;BMP180;55725;42.758;26.702;2023-04-03T06:39:20;98642.00;;;12.90
68743;BMP180;55725;42.758;26.702;2023-04-03T06:41:01;98649.00;;;12.90
68743;BMP180;55725;42.758;26.702;2023-04-03T06:42:41;98639.00;;;13.00
68743;BMP180;55725;42.758;26.702;2023-04-03T06:44:21;98649.00;;;13.20
68743;BMP180;55725;42.758;26.702;2023-04-03T06:46:02;98648.00;;;13.50
68743;BMP180;55725;42.758;26.702;2023-04-03T06:47:42;98649.00;;;13.30
68743;BMP180;55725;42.758;26.702;2023-04-03T06:49:23;98640.00;;;13.80
68743;BMP180;55725;42.758;26.702;2023-04-03T06:51:03;98645.00;;;13.90
68743;BMP180;55725;42.758;26.702;2023-04-03T06:52:43;98636.00;;;13.90
68743;BMP180;55725;42.758;26.702;2023-04-03T06:54:23;98644.00;;;14.10
68743;BMP180;55725;42.758;26.702;2023-04-03T06:56:04;98649.00;;;14.20
68743;BMP180;55725;42.758;26.702;2023-04-03T06:57:44;98652.00;;;14.20
68743;BMP180;55725;42.758;26.702;2023-04-03T06:59:25;98653.00;;;14.00
68743;BMP180;55725;42.758;26.702;2023-04-03T07:01:05;98638.00;;;14.30
68743;BMP180;55725;42.758;26.702;2023-04-03T07:02:46;98643.00;;;14.70
68743;BMP180;55725;42.758;26.702;2023-04-03T07:04:26;98658.00;;;14.50
68743;BMP180;55725;42.758;26.702;2023-04-03T07:06:08;98663.00;;;14.30
68743;BMP180;55725;42.758;26.702;2023-04-03T07:07:49;98619.00;;;14.60
68743;BMP180;55725;42.758;26.702;2023-04-03T07:09:30;98615.00;;;15.50
68743;BMP180;55725;42.758;26.702;2023-04-03T07:11:10;98613.00;;;15.50
68743;BMP180;55725;42.758;26.702;2023-04-03T07:12:51;98622.00;;;15.70
68743;BMP180;55725;42.758;26.702;2023-04-03T07:14:32;98631.00;;;16.00
68743;BMP180;55725;42.758;26.702;2023-04-03T07:16:12;98649.00;;;15.30
68743;BMP180;55725;42.758;26.702;2023-04-03T07:17:53;98641.00;;;15.50
68743;BMP180;55725;42.758;26.702;2023-04-03T07:19:33;98651.00;;;15.70
68743;BMP180;55725;42.758;26.702;2023-04-03T07:21:13;98641.00;;;15.40
68743;BMP180;55725;42.758;26.702;2023-04-03T07:22:54;98647.00;;;15.40
68743;BMP180;55725;42.758;26.702;2023-04-03T07:24:34;98651.00;;;15.30
68743;BMP180;55725;42.758;26.702;2023-04-03T07:26:15;98654.00;;;15.20
68743;BMP180;55725;42.758;26.702;2023-04-03T07:27:56;98652.00;;;15.30
68743;BMP180;55725;42.758;26.702;2023-04-03T07:29:36;98653.00;;;15.60
68743;BMP180;55725;42.758;26.702;2023-04-03T07:31:16;98649.00;;;15.60
68743;BMP180;55725;42.758;26.702;2023-04-03T07:32:58;98640.00;;;15.80
68743;BMP180;55725;42.758;26.702;2023-04-03T07:34:38;98656.00;;;15.80
68743;BMP180;55725;42.758;26.702;2023-04-03T07:36:19;98651.00;;;15.90
68743;BMP180;55725;42.758;26.702;2023-04-03T07:38:00;98657.00;;;16.10
68743;BMP180;55725;42.758;26.702;2023-04-03T07:39:43;98655.00;;;15.90
68743;BMP180;55725;42.758;26.702;2023-04-03T07:41:23;98666.00;;;15.80
68743;BMP180;55725;42.758;26.702;2023-04-03T07:43:04;98659.00;;;15.80
68743;BMP180;55725;42.758;26.702;2023-04-03T07:44:45;98665.00;;;15.70
68743;BMP180;55725;42.758;26.702;2023-04-03T07:46:25;98661.00;;;15.90
68743;BMP180;55725;42.758;26.702;2023-04-03T07:48:06;98649.00;;;15.80
68743;BMP180;55725;42.758;26.702;2023-04-03T07:49:46;98675.00;;;15.90
68743;BMP180;55725;42.758;26.702;2023-04-03T07:51:27;98669.00;;;15.80
68743;BMP180;55725;42.758;26.702;2023-04-03T07:53:08;98674.00;;;15.70
68743;BMP180;55725;42.758;26.702;2023-04-03T07:54:48;98672.00;;;15.60
68743;BMP180;55725;42.758;26.702;2023-04-03T07:56:28;98683.00;;;15.40
68743;BMP180;55725;42.758;26.702;2023-04-03T07:58:13;98675.00;;;15.60
68743;BMP180;55725;42.758;26.702;2023-04-03T07:59:54;98673.00;;;15.50
68743;BMP180;55725;42.758;26.702;2023-04-03T08:01:34;98668.00;;;15.60
68743;BMP180;55725;42.758;26.702;2023-04-03T08:03:15;98684.00;;;15.60
68743;BMP180;55725;42.758;26.702;2023-04-03T08:04:58;98665.00;;;15.80
68743;BMP180;55725;42.758;26.702;2023-04-03T08:06:39;98672.00;;;16.00
68743;BMP180;55725;42.758;26.702;2023-04-03T08:08:20;98670.00;;;16.00
68743;BMP180;55725;42.758;26.702;2023-04-03T08:10:01;98684.00;;;15.90
68743;BMP180;55725;42.758;26.702;2023-04-03T08:11:41;98679.00;;;16.10
68743;BMP180;55725;42.758;26.702;2023-04-03T08:13:22;98675.00;;;16.00
68743;BMP180;55725;42.758;26.702;2023-04-03T08:15:02;98683.00;;;16.00
68743;BMP180;55725;42.758;26.702;2023-04-03T08:16:43;98688.00;;;16.10
68743;BMP180;55725;42.758;26.702;2023-04-03T08:18:24;98679.00;;;15.80
68743;BMP180;55725;42.758;26.702;2023-04-03T08:20:05;98680.00;;;15.90
68743;BMP180;55725;42.758;26.702;2023-04-03T08:21:46;98685.00;;;15.90
68743;BMP180;55725;42.758;26.702;2023-04-03T08:23:27;98687.00;;;16.10
68743;BMP180;55725;42.758;26.702;2023-04-03T08:25:07;98683.00;;;15.90
68743;BMP180;55725;42.758;26.702;2023-04-03T08:26:47;98684.00;;;16.00
68743;BMP180;55725;42.758;26.702;2023-04-03T08:28:28;98680.00;;;16.00
68743;BMP180;55725;42.758;26.702;2023-04-03T08:30:08;98675.00;;;16.00
68743;BMP180;55725;42.758;26.702;2023-04-03T08:31:49;98675.00;;;16.20
68743;BMP180;55725;42.758;26.702;2023-04-03T08:33:30;98673.00;;;16.30
68743;BMP180;55725;42.758;26.702;2023-04-03T08:35:10;98663.00;;;16.40
68743;BMP180;55725;42.758;26.702;2023-04-03T08:36:51;98667.00;;;16.50
68743;BMP180;55725;42.758;26.702;2023-04-03T08:38:31;98669.00;;;16.70
68743;BMP180;55725;42.758;26.702;2023-04-03T08:40:16;98654.00;;;16.50
68743;BMP180;55725;42.758;26.702;2023-04-03T08:41:57;98653.00;;;16.60
68743;BMP180;55725;42.758;26.702;2023-04-03T08:43:53;98659.00;;;16.60
68743;BMP180;55725;42.758;26.702;2023-04-03T08:45:46;98647.00;;;16.60
68743;BMP180;55725;42.758;26.702;2023-04-03T08:47:29;98660.00;;;17.00
68743;BMP180;55725;42.758;26.702;2023-04-03T08:49:18;98659.00;;;16.60
68743;BMP180;55725;42.758;26.702;2023-04-03T08:51:03;98662.00;;;16.50
68743;BMP180;55725;42.758;26.702;2023-04-03T08:52:48;98671.00;;;16.30
68743;BMP180;55725;42.758;26.702;2023-04-03T08:54:32;98672.00;;;16.20
68743;BMP180;55725;42.758;26.702;2023-04-03T08:56:12;98660.00;;;16.20
68743;BMP180;55725;42.758;26.702;2023-04-03T08:58:04;98659.00;;;16.20
68743;BMP180;55725;42.758;26.702;2023-04-03T08:59:45;98659.00;;;16.20
68743;BMP180;55725;42.758;26.702;2023-04-03T09:01:27;98665.00;;;16.10
68743;BMP180;55725;42.758;26.702;2023-04-03T09:03:13;98660.00;;;16.10
68743;BMP180;55725;42.758;26.702;2023-04-03T09:04:54;98671.00;;;16.20
68743;BMP180;55725;42.758;26.702;2023-04-03T09:06:35;98666.00;;;16.30
68743;BMP180;55725;42.758;26.702;2023-04-03T09:10:03;98663.00;;;16.40
68743;BMP180;55725;42.758;26.702;2023-04-03T09:11:51;98664.00;;;16.30
68743;BMP180;55725;42.758;26.702;2023-04-03T09:15:25;98653.00;;;16.50
68743;BMP180;55725;42.758;26.702;2023-04-03T09:19:12;98664.00;;;16.50
68743;BMP180;55725;42.758;26.702;2023-04-03T09:21:18;98661.00;;;16.10
68743;BMP180;55725;42.758;26.702;2023-04-03T09:22:56;98660.00;;;16.50
68743;BMP180;55725;42.758;26.702;2023-04-03T09:24:37;98657.00;;;16.40
68743;BMP180;55725;42.758;26.702;2023-04-03T09:26:19;98658.00;;;16.40
68743;BMP180;55725;42.758;26.702;2023-04-03T09:28:01;98655.00;;;16.70
68743;BMP180;55725;42.758;26.702;2023-04-03T09:29:43;98659.00;;;16.40
68743;BMP180;55725;42.758;26.702;2023-04-03T09:31:26;98649.00;;;16.60
68743;BMP180;55725;42.758;26.702;2023-04-03T09:33:07;98655.00;;;16.90
68743;BMP180;55725;42.758;26.702;2023-04-03T09:34:48;98634.00;;;17.10
68743;BMP180;55725;42.758;26.702;2023-04-03T09:36:39;98626.00;;;17.30
68743;BMP180;55725;42.758;26.702;2023-04-03T09:38:20;98624.00;;;17.90
68743;BMP180;55725;42.758;26.702;2023-04-03T09:40:02;98634.00;;;18.20
68743;BMP180;55725;42.758;26.702;2023-04-03T09:43:51;98606.00;;;17.90
68743;BMP180;55725;42.758;26.702;2023-04-03T09:45:33;98605.00;;;18.40
68743;BMP180;55725;42.758;26.702;2023-04-03T09:47:17;98596.00;;;18.10
68743;BMP180;55725;42.758;26.702;2023-04-03T09:48:59;98603.00;;;18.50
68743;BMP180;55725;42.758;26.702;2023-04-03T09:50:59;98627.00;;;17.80
68743;BMP180;55725;42.758;26.702;2023-04-03T09:52:43;98616.00;;;18.20